Time;durP1;ratioP1;P1;durP2;ratioP2;P2;SDS_P1;SDS_P2;PMS_P1;PMS_P2;Temp;Humidity;BMP_temperature;BMP_pressure;BME280_temperature;BME280_humidity;BME280_pressure;Samples;Min_cycle;Max_cycle;Signal;HPM_P1;HPM_P2
2024/03/07 00:00:07;;;;;;;;;29.00;25.60;;;;;8.03;100.00;99229.34;5974257;29;96422;-58
2024/03/07 00:03:13;;;;;;;;;26.00;23.60;;;;;7.91;100.00;99228.22;5976226;29;96914;-58
2024/03/07 00:06:17;;;;;;;;;27.25;22.50;;;;;7.99;100.00;99232.59;5976000;29;96363;-58
2024/03/07 00:09:24;;;;;;;;;29.00;26.00;;;;;7.91;100.00;99216.66;5975654;29;96400;-58
2024/03/07 00:12:28;;;;;;;;;26.20;22.60;;;;;7.99;100.00;99224.56;5976231;29;96266;-58
2024/03/07 00:15:31;;;;;;;;;26.00;23.00;;;;;7.75;100.00;99218.63;5975511;29;96252;-58
2024/03/07 00:18:34;;;;;;;;;27.40;25.40;;;;;8.00;100.00;99226.22;5975580;29;97054;-58
2024/03/07 00:21:37;;;;;;;;;28.80;23.80;;;;;8.04;100.00;99232.84;5974948;29;96677;-58
2024/03/07 00:24:42;;;;;;;;;27.75;24.00;;;;;8.10;100.00;99232.06;5975425;29;96338;-58
2024/03/07 00:27:46;;;;;;;;;28.00;26.00;;;;;8.11;100.00;99231.03;5975912;29;96285;-58
2024/03/07 00:30:49;;;;;;;;;27.00;24.00;;;;;8.17;100.00;99231.06;5975321;29;96566;-57
2024/03/07 00:33:52;;;;;;;;;26.60;24.00;;;;;8.14;100.00;99238.69;5974865;29;96347;-58
2024/03/07 00:37:12;;;;;;;;;26.60;24.00;;;;;8.16;100.00;99237.47;5975240;29;96375;-58
2024/03/07 00:40:17;;;;;;;;;31.00;25.75;;;;;8.23;100.00;99230.28;5975019;29;96457;-58
2024/03/07 00:43:20;;;;;;;;;26.00;24.00;;;;;8.25;100.00;99228.25;5974629;29;96509;-57
2024/03/07 00:46:23;;;;;;;;;29.40;27.40;;;;;8.25;100.00;99241.66;5975368;29;96296;-57
2024/03/07 00:49:28;;;;;;;;;28.00;26.00;;;;;8.25;100.00;99235.47;5974824;29;96463;-58
2024/03/07 00:52:32;;;;;;;;;28.60;24.60;;;;;8.08;100.00;99224.19;5976228;29;96489;-57
2024/03/07 00:55:36;;;;;;;;;28.20;26.00;;;;;8.15;100.00;99226.94;5973791;29;98929;-57
2024/03/07 00:58:40;;;;;;;;;29.00;26.80;;;;;8.18;100.00;99222.00;5975119;29;96481;-56
2024/03/07 01:01:44;;;;;;;;;28.00;24.00;;;;;8.23;100.00;99224.06;5975191;29;96553;-57
2024/03/07 01:04:47;;;;;;;;;30.00;25.50;;;;;8.13;100.00;99228.97;5973517;29;96743;-57
2024/03/07 01:07:50;;;;;;;;;28.25;23.25;;;;;8.01;100.00;99223.34;5973323;29;96654;-57
2024/03/07 01:10:54;;;;;;;;;27.75;26.75;;;;;7.97;100.00;99224.75;5974595;29;96145;-58
2024/03/07 01:13:58;;;;;;;;;30.25;25.75;;;;;7.99;100.00;99221.88;5974555;29;96409;-57
2024/03/07 01:17:01;;;;;;;;;27.80;23.20;;;;;7.82;100.00;99200.69;5973451;29;96870;-58
2024/03/07 01:20:04;;;;;;;;;28.00;24.00;;;;;7.92;100.00;99226.34;5974266;29;96342;-57
2024/03/07 01:23:08;;;;;;;;;31.00;27.00;;;;;7.96;100.00;99224.97;5974869;29;96405;-57
2024/03/07 01:26:12;;;;;;;;;30.00;25.75;;;;;7.92;100.00;99223.66;5972864;29;96188;-57
2024/03/07 01:29:15;;;;;;;;;32.00;29.00;;;;;7.98;100.00;99225.56;5972794;29;96753;-57
2024/03/07 01:32:19;;;;;;;;;34.20;29.20;;;;;7.93;100.00;99219.97;5974681;29;96312;-57
2024/03/07 01:35:22;;;;;;;;;32.80;28.20;;;;;7.82;100.00;99216.78;5974321;29;97001;-57
2024/03/07 01:38:25;;;;;;;;;31.50;26.25;;;;;7.71;100.00;99229.94;5974336;29;96357;-57
2024/03/07 01:41:30;;;;;;;;;31.50;29.00;;;;;7.58;100.00;99221.75;5974213;29;96540;-57
2024/03/07 01:44:33;;;;;;;;;31.60;28.60;;;;;7.74;100.00;99222.31;5972698;29;98537;-57
2024/03/07 01:47:37;;;;;;;;;32.75;28.50;;;;;7.69;100.00;99219.41;5972953;29;96263;-58
2024/03/07 01:50:41;;;;;;;;;34.00;27.00;;;;;7.73;100.00;99222.50;5974131;29;96321;-57
2024/03/07 01:53:45;;;;;;;;;28.60;26.00;;;;;7.71;100.00;99220.03;5973477;29;96269;-57
2024/03/07 01:56:50;;;;;;;;;30.60;27.20;;;;;7.76;100.00;99219.44;5973949;29;96380;-58
2024/03/07 01:59:53;;;;;;;;;35.80;30.20;;;;;7.70;100.00;99217.53;5962689;29;96370;-58
2024/03/07 02:02:57;;;;;;;;;30.00;27.20;;;;;7.67;100.00;99242.91;5997345;23;96605;-84
2024/03/07 02:06:01;;;;;;;;;35.67;29.67;;;;;7.76;100.00;99214.91;5975459;29;96516;-84
2024/03/07 02:09:05;;;;;;;;;34.60;30.60;;;;;7.63;100.00;99200.56;5995226;29;96938;-84
2024/03/07 02:12:10;;;;;;;;;28.60;25.60;;;;;7.64;100.00;99204.91;5993172;29;96844;-85
2024/03/07 02:15:14;;;;;;;;;36.60;28.60;;;;;7.25;100.00;99149.91;5992738;29;96479;-84
2024/03/07 02:18:18;;;;;;;;;34.00;29.50;;;;;7.42;100.00;99177.31;5993621;29;96786;-84
2024/03/07 02:21:23;;;;;;;;;33.40;29.00;;;;;6.23;100.00;99046.75;5995009;29;96785;-84
2024/03/07 02:24:27;;;;;;;;;35.00;30.40;;;;;6.74;100.00;99082.28;5979141;29;96779;-84
2024/03/07 02:27:31;;;;;;;;;35.40;30.00;;;;;7.14;100.00;99160.31;5979655;29;96910;-84
2024/03/07 02:30:35;;;;;;;;;34.00;30.50;;;;;7.24;100.00;99180.44;5979244;29;96175;-84
2024/03/07 02:33:39;;;;;;;;;37.40;30.80;;;;;6.75;100.00;99115.22;5994706;29;96591;-84
2024/03/07 02:36:45;;;;;;;;;33.40;29.40;;;;;6.88;100.00;99207.34;5983669;29;96777;-84
2024/03/07 02:39:49;;;;;;;;;33.00;29.20;;;;;6.21;100.00;99062.16;6014171;29;96956;-84
2024/03/07 02:42:54;;;;;;;;;34.40;30.00;;;;;6.47;100.00;99107.97;5985716;29;96630;-84
2024/03/07 02:45:58;;;;;;;;;32.75;28.50;;;;;6.83;100.00;99211.59;5982211;29;96927;-84
2024/03/07 02:49:02;;;;;;;;;35.00;30.00;;;;;6.88;100.00;99185.06;5982435;29;96860;-84
2024/03/07 02:52:08;;;;;;;;;37.20;30.20;;;;;6.92;100.00;99171.06;5996013;29;97032;-83
2024/03/07 02:55:13;;;;;;;;;33.60;29.00;;;;;6.99;100.00;99175.69;5981130;29;96734;-84
2024/03/07 02:58:16;;;;;;;;;30.75;28.00;;;;;6.85;100.00;99166.66;5980893;29;96876;-83
2024/03/07 03:01:20;;;;;;;;;38.00;32.00;;;;;6.47;100.00;99120.53;5970245;29;96897;-82
2024/03/07 03:04:24;;;;;;;;;36.50;30.00;;;;;7.19;100.00;99196.28;5984486;29;96839;-84
2024/03/07 03:07:29;;;;;;;;;40.00;30.50;;;;;7.16;100.00;99230.69;5976743;29;96576;-83
2024/03/07 03:10:33;;;;;;;;;38.60;30.00;;;;;7.31;100.00;99210.84;5988666;23;96768;-54
2024/03/07 03:13:38;;;;;;;;;38.00;31.00;;;;;7.26;100.00;99224.00;5986812;29;96903;-55
2024/03/07 03:16:43;;;;;;;;;41.00;31.60;;;;;7.29;100.00;99220.06;5992115;29;96620;-55
2024/03/07 03:19:51;;;;;;;;;33.20;30.00;;;;;7.37;100.00;99215.44;5982715;29;96291;-55
2024/03/07 03:22:56;;;;;;;;;36.50;32.00;;;;;7.45;100.00;99222.50;5971125;29;96345;-56
2024/03/07 03:26:19;;;;;;;;;32.50;30.00;;;;;7.42;100.00;99222.91;5974069;29;96579;-56
2024/03/07 03:29:23;;;;;;;;;35.00;29.60;;;;;7.34;100.00;99206.91;5974349;29;96459;-56
2024/03/07 03:32:26;;;;;;;;;35.00;29.00;;;;;7.24;100.00;99212.63;5968827;29;97120;-54
2024/03/07 03:35:29;;;;;;;;;34.80;30.00;;;;;7.32;100.00;99214.34;5950874;29;98676;-54
2024/03/07 03:38:34;;;;;;;;;35.00;30.00;;;;;7.40;100.00;99215.03;5953104;29;96085;-54
2024/03/07 03:41:37;;;;;;;;;38.00;32.00;;;;;7.34;100.00;99215.81;5951345;29;97598;-55
2024/03/07 03:44:40;;;;;;;;;35.80;31.40;;;;;7.32;100.00;99217.88;5953169;29;97237;-54
2024/03/07 03:47:44;;;;;;;;;38.00;30.00;;;;;7.33;100.00;99221.38;5952563;29;96856;-55
2024/03/07 03:50:47;;;;;;;;;39.25;32.00;;;;;7.39;100.00;99224.09;5952356;29;96930;-54
2024/03/07 03:53:53;;;;;;;;;37.40;32.00;;;;;7.19;100.00;99228.44;5951895;29;96300;-54
2024/03/07 03:56:58;;;;;;;;;43.00;34.00;;;;;7.35;100.00;99222.84;5953218;29;96416;-54
2024/03/07 04:00:07;;;;;;;;;42.00;32.00;;;;;7.29;100.00;99225.44;5952894;29;96909;-54
2024/03/07 04:03:10;;;;;;;;;39.50;33.00;;;;;7.17;100.00;99225.16;5952922;29;96468;-55
2024/03/07 04:06:14;;;;;;;;;39.60;33.00;;;;;7.16;100.00;99223.47;5951296;29;96197;-54
2024/03/07 04:09:19;;;;;;;;;39.50;30.75;;;;;7.09;100.00;99217.22;5951430;29;96413;-54
2024/03/07 04:12:23;;;;;;;;;40.20;33.00;;;;;7.17;100.00;99221.63;5952370;29;96355;-55
2024/03/07 04:15:26;;;;;;;;;42.50;32.25;;;;;7.06;100.00;99216.78;5951286;29;96704;-54
2024/03/07 04:18:30;;;;;;;;;39.40;33.00;;;;;7.06;100.00;99227.50;5952231;29;96618;-54
2024/03/07 04:21:33;;;;;;;;;40.75;32.75;;;;;6.99;100.00;99237.34;5951865;29;96771;-55
2024/03/07 04:24:37;;;;;;;;;40.40;30.40;;;;;6.92;100.00;99234.56;5951038;29;96253;-54
2024/03/07 04:27:41;;;;;;;;;41.40;34.40;;;;;6.85;100.00;99222.94;5952127;29;98196;-55
2024/03/07 04:30:44;;;;;;;;;41.00;31.60;;;;;6.89;100.00;99240.31;5952042;29;96270;-54
2024/03/07 04:33:47;;;;;;;;;34.20;29.60;;;;;6.84;100.00;99238.19;5950444;29;96640;-54
2024/03/07 04:36:50;;;;;;;;;38.50;32.50;;;;;6.69;100.00;99210.63;5952417;29;96841;-54
2024/03/07 04:39:55;;;;;;;;;44.00;32.80;;;;;6.85;100.00;99239.84;5951447;29;96838;-55
2024/03/07 04:42:58;;;;;;;;;37.40;32.20;;;;;6.90;100.00;99236.59;5951872;29;97169;-55
2024/03/07 04:46:01;;;;;;;;;42.00;33.00;;;;;6.95;100.00;99237.69;5949935;29;96278;-55
2024/03/07 04:49:04;;;;;;;;;37.33;32.00;;;;;6.96;100.00;99260.81;5950295;29;97214;-54
2024/03/07 04:52:08;;;;;;;;;39.20;30.20;;;;;6.81;100.00;99241.25;5949437;29;96509;-55
2024/03/07 04:55:12;;;;;;;;;35.20;30.00;;;;;6.91;100.00;99240.94;5964127;29;96294;-54
2024/03/07 04:58:16;;;;;;;;;40.75;33.00;;;;;6.99;100.00;99259.59;5951152;29;96377;-54
2024/03/07 05:01:19;;;;;;;;;39.20;32.60;;;;;6.94;100.00;99249.44;5959429;29;96399;-54
2024/03/07 05:04:29;;;;;;;;;37.20;31.60;;;;;6.92;100.00;99259.53;5963452;29;96462;-54
2024/03/07 05:07:32;;;;;;;;;35.00;29.00;;;;;6.80;100.00;99261.03;5955849;29;96960;-54
2024/03/07 05:10:36;;;;;;;;;37.00;32.00;;;;;6.81;100.00;99257.34;5937401;29;97589;-55
2024/03/07 05:13:42;;;;;;;;;37.40;32.00;;;;;6.78;100.00;99263.09;5953705;29;96804;-55
2024/03/07 05:16:45;;;;;;;;;34.40;31.00;;;;;6.76;100.00;99264.28;5947902;29;96406;-54
2024/03/07 05:19:49;;;;;;;;;37.25;32.00;;;;;6.87;100.00;99261.09;5949136;29;96521;-54
2024/03/07 05:22:52;;;;;;;;;38.50;33.00;;;;;6.85;100.00;99263.13;5949940;29;97025;-55
2024/03/07 05:25:57;;;;;;;;;45.00;33.00;;;;;6.69;100.00;99274.94;5947437;29;96709;-55
2024/03/07 05:29:04;;;;;;;;;38.60;30.60;;;;;6.74;100.00;99272.53;5950141;29;96407;-54
2024/03/07 05:32:24;;;;;;;;;40.00;32.60;;;;;6.81;100.00;99268.06;5949146;29;97435;-54
2024/03/07 05:35:29;;;;;;;;;38.40;31.00;;;;;6.83;100.00;99281.28;5948515;29;96700;-54
2024/03/07 05:38:32;;;;;;;;;38.75;32.00;;;;;6.86;100.00;99279.03;5931508;29;96269;-54
2024/03/07 05:41:37;;;;;;;;;32.60;30.00;;;;;6.90;100.00;99282.16;5943676;29;96328;-54
2024/03/07 05:44:41;;;;;;;;;40.40;32.20;;;;;6.77;100.00;99284.69;5935366;29;97034;-54
2024/03/07 05:47:45;;;;;;;;;36.33;32.00;;;;;6.73;100.00;99283.41;5951825;29;97702;-54
2024/03/07 05:50:48;;;;;;;;;42.80;32.60;;;;;6.44;100.00;99286.97;5958585;29;98071;-54
2024/03/07 05:53:51;;;;;;;;;40.00;32.80;;;;;6.14;100.00;99254.00;5951131;29;96482;-54
2024/03/07 05:56:56;;;;;;;;;34.00;30.00;;;;;6.32;100.00;99283.91;5950846;29;96353;-54
2024/03/07 05:59:59;;;;;;;;;38.60;32.00;;;;;6.41;100.00;99280.09;5941884;29;100825;-54
2024/03/07 06:03:02;;;;;;;;;38.20;32.20;;;;;6.35;100.00;99288.88;5956637;29;96355;-54
2024/03/07 06:06:11;;;;;;;;;39.00;32.00;;;;;6.43;100.00;99288.81;5947705;29;96843;-54
2024/03/07 06:09:20;;;;;;;;;36.40;31.00;;;;;6.28;100.00;99279.94;5946518;29;96358;-54
2024/03/07 06:12:25;;;;;;;;;40.20;32.20;;;;;6.47;100.00;99283.91;5949571;29;96280;-55
2024/03/07 06:15:30;;;;;;;;;44.60;35.40;;;;;6.49;100.00;99301.47;5943584;29;96899;-54
2024/03/07 06:18:34;;;;;;;;;41.00;33.25;;;;;6.46;100.00;99304.50;5944498;29;96450;-54
2024/03/07 06:21:40;;;;;;;;;43.60;34.20;;;;;6.18;100.00;99290.09;5944675;29;96574;-54
2024/03/07 06:24:44;;;;;;;;;41.40;34.40;;;;;6.12;100.00;99268.56;5944107;29;97128;-54
2024/03/07 06:27:49;;;;;;;;;38.80;33.00;;;;;6.31;100.00;99310.84;5948741;29;96284;-54
2024/03/07 06:30:52;;;;;;;;;37.00;31.80;;;;;6.27;100.00;99305.03;5948224;29;96427;-54
2024/03/07 06:33:55;;;;;;;;;36.00;31.00;;;;;6.13;100.00;99305.88;5930614;29;96601;-54
2024/03/07 06:36:58;;;;;;;;;46.00;38.00;;;;;6.10;100.00;99316.94;5945595;29;96513;-55
2024/03/07 06:40:05;;;;;;;;;34.60;30.40;;;;;5.85;100.00;99312.81;5959407;29;96448;-54
2024/03/07 06:43:10;;;;;;;;;40.20;31.00;;;;;5.70;100.00;99293.22;5972170;29;96393;-55
2024/03/07 06:46:15;;;;;;;;;41.75;31.50;;;;;5.72;100.00;99285.84;5963605;29;97567;-54
2024/03/07 06:49:20;;;;;;;;;41.80;32.80;;;;;5.83;100.00;99315.66;5949461;29;97135;-54
2024/03/07 06:52:24;;;;;;;;;45.80;35.00;;;;;6.01;100.00;99326.88;5949716;29;96278;-54
2024/03/07 06:55:28;;;;;;;;;36.00;30.33;;;;;5.83;100.00;99285.38;5952361;29;97689;-54
2024/03/07 06:58:32;;;;;;;;;47.60;33.20;;;;;6.03;100.00;99330.22;5955619;29;96523;-54
2024/03/07 07:01:36;;;;;;;;;38.60;30.60;;;;;6.12;100.00;99328.28;5970787;29;96417;-54
2024/03/07 07:04:42;;;;;;;;;41.40;31.20;;;;;5.93;100.00;99328.81;5940464;29;97265;-54
2024/03/07 07:07:46;;;;;;;;;44.75;33.00;;;;;5.97;100.00;99322.06;5947841;29;99075;-54
2024/03/07 07:10:49;;;;;;;;;43.00;33.40;;;;;6.08;100.00;99333.19;5947944;29;96857;-55
2024/03/07 07:13:53;;;;;;;;;39.20;32.40;;;;;6.06;100.00;99331.69;5968894;29;96347;-54
2024/03/07 07:16:58;;;;;;;;;42.50;32.50;;;;;5.94;100.00;99336.66;5948615;29;96302;-54
2024/03/07 07:20:09;;;;;;;;;41.40;33.00;;;;;6.01;100.00;99340.25;5948840;29;96547;-54
2024/03/07 07:23:13;;;;;;;;;38.50;30.50;;;;;5.81;100.00;99340.94;5947263;29;96848;-54
2024/03/07 07:26:16;;;;;;;;;41.60;32.80;;;;;5.87;100.00;99338.38;5950919;29;96643;-54
2024/03/07 07:29:23;;;;;;;;;41.60;32.20;;;;;5.93;100.00;99340.34;5960711;29;96437;-54
2024/03/07 07:32:27;;;;;;;;;35.00;30.00;;;;;5.96;100.00;99333.81;5930326;29;96428;-55
2024/03/07 07:35:31;;;;;;;;;44.00;33.40;;;;;5.99;100.00;99341.47;5930435;29;97273;-54
2024/03/07 07:38:34;;;;;;;;;42.60;33.40;;;;;6.06;100.00;99345.91;5930175;29;97017;-54
2024/03/07 07:41:37;;;;;;;;;39.50;33.00;;;;;6.01;100.00;99340.25;5930239;29;97598;-55
2024/03/07 07:44:45;;;;;;;;;38.00;31.00;;;;;6.13;100.00;99339.84;5928783;29;96351;-55
2024/03/07 07:47:49;;;;;;;;;36.80;31.80;;;;;6.19;100.00;99339.94;5952444;29;97706;-55
2024/03/07 07:50:53;;;;;;;;;39.80;33.00;;;;;5.96;100.00;99347.19;5959917;29;96412;-54
2024/03/07 07:53:57;;;;;;;;;40.00;30.50;;;;;5.88;100.00;99324.00;5975611;29;96342;-54
2024/03/07 07:57:00;;;;;;;;;39.75;32.00;;;;;6.13;100.00;99343.34;5966914;29;96694;-54
2024/03/07 08:00:09;;;;;;;;;37.60;31.00;;;;;6.18;100.00;99345.47;5952092;29;97684;-54
2024/03/07 08:03:15;;;;;;;;;39.80;30.80;;;;;6.01;100.00;99337.59;5951531;29;96798;-54
2024/03/07 08:06:18;;;;;;;;;39.20;32.40;;;;;5.99;100.00;99347.66;5963715;29;96280;-54
2024/03/07 08:09:22;;;;;;;;;39.60;31.40;;;;;6.22;100.00;99350.28;5949771;29;97013;-54
2024/03/07 08:12:25;;;;;;;;;41.60;33.00;;;;;6.31;100.00;99356.38;5950777;29;96466;-54
2024/03/07 08:15:31;;;;;;;;;37.00;30.00;;;;;6.05;100.00;99330.06;5951059;29;96341;-54
2024/03/07 08:18:34;;;;;;;;;34.00;30.00;;;;;6.12;100.00;99340.84;5965058;29;96377;-55
2024/03/07 08:21:38;;;;;;;;;36.00;31.00;;;;;6.24;100.00;99347.44;5948692;29;97463;-55
2024/03/07 08:24:41;;;;;;;;;39.00;32.60;;;;;6.26;100.00;99364.97;5949305;29;96685;-54
2024/03/07 08:27:49;;;;;;;;;37.00;31.60;;;;;6.24;100.00;99363.50;5949692;29;96494;-55
2024/03/07 08:30:54;;;;;;;;;38.60;33.80;;;;;6.24;100.00;99368.84;5950394;29;96568;-55
2024/03/07 08:33:58;;;;;;;;;39.00;32.00;;;;;6.20;100.00;99356.84;5949590;29;96310;-55
2024/03/07 08:37:03;;;;;;;;;42.00;33.00;;;;;6.27;100.00;99358.59;5950192;29;96538;-54
2024/03/07 08:40:09;;;;;;;;;34.00;30.00;;;;;6.37;100.00;99366.38;5952207;29;96316;-54
2024/03/07 08:43:14;;;;;;;;;39.00;32.60;;;;;6.36;100.00;99364.69;5951936;29;96363;-54
2024/03/07 08:46:18;;;;;;;;;39.80;32.00;;;;;6.35;100.00;99360.38;5951793;29;96348;-54
2024/03/07 08:49:22;;;;;;;;;40.20;32.00;;;;;6.32;100.00;99372.28;5951831;29;96367;-54
2024/03/07 08:52:25;;;;;;;;;31.60;29.00;;;;;6.23;100.00;99365.34;5951956;29;96340;-54
2024/03/07 08:55:28;;;;;;;;;40.20;30.60;;;;;6.25;100.00;99368.69;5952102;29;97192;-54
2024/03/07 08:58:31;;;;;;;;;38.20;32.00;;;;;6.04;100.00;99342.59;5952171;29;96508;-54
2024/03/07 09:01:36;;;;;;;;;39.00;31.00;;;;;6.27;100.00;99366.63;5952020;29;96355;-54
2024/03/07 09:04:40;;;;;;;;;32.00;29.20;;;;;6.21;100.00;99345.09;5951652;29;96265;-54
2024/03/07 09:07:44;;;;;;;;;36.40;30.00;;;;;6.34;100.00;99366.75;5951693;29;96535;-54
2024/03/07 09:10:48;;;;;;;;;34.75;29.00;;;;;6.43;100.00;99360.28;5951359;29;96471;-54
2024/03/07 09:13:51;;;;;;;;;33.00;28.40;;;;;6.37;100.00;99366.38;5951609;29;96846;-54
2024/03/07 09:16:55;;;;;;;;;40.60;29.00;;;;;6.42;100.00;99370.16;5951496;29;96785;-54
2024/03/07 09:19:58;;;;;;;;;35.60;31.60;;;;;6.61;100.00;99363.41;5950170;29;96728;-54
2024/03/07 09:23:02;;;;;;;;;34.40;30.00;;;;;6.51;100.00;99369.06;5951346;29;96387;-54
2024/03/07 09:26:07;;;;;;;;;34.00;30.00;;;;;6.45;100.00;99375.13;5950560;29;96421;-54
2024/03/07 09:29:10;;;;;;;;;38.00;32.00;;;;;6.58;100.00;99371.84;5951390;29;97465;-54
2024/03/07 09:32:15;;;;;;;;;37.75;32.00;;;;;6.58;100.00;99363.81;5951264;29;96406;-54
2024/03/07 09:35:18;;;;;;;;;36.00;30.00;;;;;6.60;100.00;99371.66;5950062;29;96896;-54
2024/03/07 09:38:23;;;;;;;;;38.00;32.80;;;;;6.64;100.00;99376.47;5951591;29;96390;-54
2024/03/07 09:41:26;;;;;;;;;36.60;31.00;;;;;6.70;100.00;99382.91;5951025;29;96343;-54
2024/03/07 09:44:32;;;;;;;;;35.50;30.00;;;;;6.29;100.00;99318.25;5951381;29;96734;-54
2024/03/07 09:47:37;;;;;;;;;32.00;30.00;;;;;6.70;100.00;99378.38;5950558;29;96838;-54
2024/03/07 09:50:42;;;;;;;;;37.60;30.00;;;;;6.71;100.00;99373.84;5964483;29;98892;-54
2024/03/07 09:53:47;;;;;;;;;35.00;31.60;;;;;6.67;100.00;99383.28;5950866;29;96377;-54
2024/03/07 09:56:51;;;;;;;;;36.00;30.60;;;;;6.49;100.00;99384.50;5951510;29;96905;-54
2024/03/07 09:59:56;;;;;;;;;34.20;30.40;;;;;6.45;100.00;99387.72;5965184;29;96122;-54
2024/03/07 10:03:06;;;;;;;;;37.75;31.50;;;;;6.61;100.00;99384.84;5950700;29;96727;-54
2024/03/07 10:06:10;;;;;;;;;36.60;31.80;;;;;6.59;100.00;99386.91;5950964;29;96376;-54
2024/03/07 10:09:14;;;;;;;;;33.40;29.60;;;;;6.55;100.00;99382.09;5950177;29;96585;-54
2024/03/07 10:12:18;;;;;;;;;37.25;30.00;;;;;6.60;100.00;99393.09;5950552;29;96365;-54
2024/03/07 10:15:22;;;;;;;;;37.50;31.00;;;;;6.58;100.00;99395.13;5949276;29;96603;-54
2024/03/07 10:18:27;;;;;;;;;34.50;31.25;;;;;6.35;100.00;99360.38;5950673;29;96936;-54
2024/03/07 10:21:30;;;;;;;;;38.40;33.00;;;;;6.55;100.00;99395.50;5950351;29;96296;-54
2024/03/07 10:24:34;;;;;;;;;37.40;29.00;;;;;6.71;100.00;99392.63;5950206;29;96414;-54
2024/03/07 10:27:39;;;;;;;;;33.80;29.80;;;;;6.68;100.00;99390.31;5949205;29;96251;-54
2024/03/07 10:30:44;;;;;;;;;33.40;30.00;;;;;6.65;100.00;99386.16;5950476;29;96406;-54
2024/03/07 10:33:49;;;;;;;;;32.40;28.40;;;;;6.40;100.00;99395.47;5950671;29;96861;-54
2024/03/07 10:36:52;;;;;;;;;32.00;28.00;;;;;6.39;100.00;99396.47;5949481;29;96916;-54
2024/03/07 10:39:57;;;;;;;;;32.67;30.00;;;;;6.43;100.00;99395.09;5950464;29;96667;-54
2024/03/07 10:43:02;;;;;;;;;35.75;30.00;;;;;6.31;100.00;99400.06;5964442;29;96674;-54
2024/03/07 10:46:07;;;;;;;;;33.00;30.00;;;;;6.26;100.00;99398.94;5950337;29;96519;-54
2024/03/07 10:49:17;;;;;;;;;36.00;30.00;;;;;6.49;100.00;99400.56;5964043;29;96272;-54
2024/03/07 10:52:29;;;;;;;;;34.25;30.75;;;;;6.61;100.00;99403.59;5950183;29;96300;-54
2024/03/07 10:55:39;;;;;;;;;36.60;30.00;;;;;6.64;100.00;99395.22;5950062;29;96821;-54
2024/03/07 10:58:59;;;;;;;;;37.20;32.80;;;;;6.63;100.00;99404.28;5950190;29;97581;-54
2024/03/07 11:02:17;;;;;;;;;39.40;30.80;;;;;6.75;100.00;99394.75;5953482;29;96919;-54
2024/03/07 11:05:24;;;;;;;;;35.60;30.40;;;;;6.90;100.00;99403.59;5954121;29;96911;-54
2024/03/07 11:08:28;;;;;;;;;34.50;29.00;;;;;5.74;100.00;99195.53;5953770;29;96370;-54
2024/03/07 11:11:32;;;;;;;;;33.67;29.33;;;;;6.76;100.00;99385.69;5953731;29;96970;-54
2024/03/07 11:14:38;;;;;;;;;32.00;28.00;;;;;7.00;100.00;99389.09;5953682;29;97128;-54
2024/03/07 11:17:41;;;;;;;;;36.60;30.00;;;;;7.20;100.00;99392.84;5937153;29;96711;-54
2024/03/07 11:20:47;;;;;;;;;31.20;27.00;;;;;7.21;100.00;99386.47;5953575;29;96533;-54
2024/03/07 11:23:50;;;;;;;;;33.75;29.25;;;;;7.17;100.00;99391.41;5953668;29;96341;-54
2024/03/07 11:26:55;;;;;;;;;33.00;29.60;;;;;7.29;100.00;99394.41;5951980;29;96832;-54
2024/03/07 11:30:06;;;;;;;;;30.80;27.80;;;;;7.19;100.00;99394.69;5952392;29;96414;-54
2024/03/07 11:33:14;;;;;;;;;28.00;27.00;;;;;7.01;100.00;99388.06;5951746;29;96891;-54
2024/03/07 11:36:44;;;;;;;;;34.00;30.20;;;;;7.01;100.00;99386.22;5953462;29;96442;-54
2024/03/07 11:39:50;;;;;;;;;34.60;30.00;;;;;6.91;100.00;99381.16;5953556;29;96453;-54
2024/03/07 11:42:56;;;;;;;;;32.80;29.60;;;;;7.07;100.00;99381.97;5966953;29;96373;-54
2024/03/07 11:46:00;;;;;;;;;35.00;30.00;;;;;7.05;100.00;99390.19;5953108;29;96368;-54
2024/03/07 11:49:03;;;;;;;;;35.40;28.80;;;;;7.13;100.00;99394.63;5953233;29;96450;-54
2024/03/07 11:52:11;;;;;;;;;32.00;27.00;;;;;7.16;100.00;99394.25;5951796;29;96772;-54
2024/03/07 11:55:16;;;;;;;;;32.80;29.60;;;;;6.84;100.00;99384.78;5952743;29;96340;-55
2024/03/07 11:58:21;;;;;;;;;34.00;30.00;;;;;7.10;100.00;99384.28;5952923;29;96394;-54
2024/03/07 12:01:30;;;;;;;;;29.00;27.00;;;;;7.10;100.00;99385.09;5930392;29;96600;-54
2024/03/07 12:04:34;;;;;;;;;32.40;30.00;;;;;7.06;100.00;99388.34;5930151;29;97464;-54
2024/03/07 12:07:39;;;;;;;;;31.80;29.00;;;;;6.78;100.00;99393.56;5944175;29;96520;-54
2024/03/07 12:10:44;;;;;;;;;34.20;28.60;;;;;6.62;100.00;99401.75;5930885;29;96675;-54
2024/03/07 12:13:52;;;;;;;;;33.00;30.00;;;;;6.66;100.00;99386.97;5948814;29;96505;-54
2024/03/07 12:16:56;;;;;;;;;34.20;28.80;;;;;6.70;100.00;99398.97;5952559;29;96480;-54
2024/03/07 12:20:02;;;;;;;;;32.60;29.00;;;;;6.84;100.00;99404.34;5951113;29;98483;-54
2024/03/07 12:23:08;;;;;;;;;32.60;27.20;;;;;6.80;100.00;99394.19;5952206;29;96839;-54
2024/03/07 12:26:16;;;;;;;;;34.50;30.00;;;;;6.87;100.00;99398.63;5951764;29;96353;-54
2024/03/07 12:29:26;;;;;;;;;32.50;29.00;;;;;6.86;100.00;99404.16;5951079;29;96692;-54
2024/03/07 12:32:31;;;;;;;;;34.00;29.00;;;;;6.71;100.00;99390.78;5952561;29;96878;-54
2024/03/07 12:35:34;;;;;;;;;36.00;29.00;;;;;7.03;100.00;99402.97;5952396;29;96267;-54
2024/03/07 12:38:41;;;;;;;;;38.60;32.00;;;;;7.04;100.00;99383.16;5966884;29;96507;-54
2024/03/07 12:41:45;;;;;;;;;35.40;30.00;;;;;7.29;100.00;99405.97;5953275;29;97332;-54
2024/03/07 12:44:51;;;;;;;;;34.20;31.00;;;;;7.29;100.00;99392.56;5951821;29;96572;-54
2024/03/07 12:47:55;;;;;;;;;33.20;30.00;;;;;7.29;100.00;99381.00;5952341;29;96986;-54
2024/03/07 12:50:58;;;;;;;;;34.00;29.50;;;;;7.29;100.00;99407.81;5950415;29;96355;-54
2024/03/07 12:54:07;;;;;;;;;34.40;31.00;;;;;7.15;100.00;99404.16;5957107;29;96808;-54
2024/03/07 12:57:11;;;;;;;;;35.00;29.25;;;;;7.25;100.00;99410.06;5965466;29;96293;-54
2024/03/07 13:00:19;;;;;;;;;34.00;30.00;;;;;7.25;100.00;99401.16;5933715;29;96525;-54
2024/03/07 13:03:22;;;;;;;;;32.80;27.00;;;;;7.28;100.00;99404.28;5950184;29;96441;-54
2024/03/07 13:06:29;;;;;;;;;31.00;29.00;;;;;7.45;100.00;99404.91;5951832;29;98213;-54
2024/03/07 13:09:34;;;;;;;;;34.75;28.00;;;;;7.43;100.00;99409.63;5951601;29;96698;-54
2024/03/07 13:12:42;;;;;;;;;33.00;28.33;;;;;7.51;100.00;99408.69;5951301;29;98733;-54
2024/03/07 13:15:47;;;;;;;;;35.50;30.00;;;;;7.61;100.00;99403.88;5951580;29;96203;-55
2024/03/07 13:18:53;;;;;;;;;32.20;28.20;;;;;7.74;100.00;99401.31;5951761;29;96679;-54
2024/03/07 13:21:56;;;;;;;;;32.50;30.00;;;;;7.75;100.00;99398.44;5951201;29;96274;-54
2024/03/07 13:25:04;;;;;;;;;30.00;27.60;;;;;7.83;100.00;99402.84;5950278;29;96310;-54
2024/03/07 13:28:13;;;;;;;;;34.60;28.20;;;;;7.89;100.00;99404.78;5951446;29;96742;-54
2024/03/07 13:31:17;;;;;;;;;32.00;27.00;;;;;8.01;100.00;99403.25;5937910;29;97034;-55
2024/03/07 13:34:20;;;;;;;;;34.20;30.00;;;;;8.13;100.00;99390.09;5957814;29;96418;-55
2024/03/07 13:37:24;;;;;;;;;31.25;30.00;;;;;8.28;100.00;99396.22;5932887;29;97461;-54
2024/03/07 13:40:30;;;;;;;;;29.00;28.40;;;;;8.28;100.00;99401.59;5950132;29;96446;-54
2024/03/07 13:43:34;;;;;;;;;33.20;29.40;;;;;8.32;100.00;99391.31;5940167;29;96642;-55
2024/03/07 13:46:37;;;;;;;;;29.80;27.00;;;;;8.31;100.00;99403.13;5942521;29;96377;-55
2024/03/07 13:49:42;;;;;;;;;31.80;28.80;;;;;8.05;100.00;99393.78;5933176;29;96240;-55
2024/03/07 13:53:04;;;;;;;;;30.50;28.50;;;;;8.15;100.00;99396.97;5950783;29;96894;-55
2024/03/07 13:56:35;;;;;;;;;32.50;28.75;;;;;8.25;100.00;99393.94;5940872;29;96348;-54
2024/03/07 13:59:58;;;;;;;;;29.00;26.60;;;;;8.13;100.00;99390.09;5940788;29;96441;-54
2024/03/07 14:03:27;;;;;;;;;34.00;30.40;;;;;8.14;100.00;99392.59;5949125;29;96813;-54
2024/03/07 14:06:39;;;;;;;;;31.20;28.20;;;;;8.12;100.00;99389.28;5940099;29;96672;-54
2024/03/07 14:10:21;;;;;;;;;32.00;29.80;;;;;8.13;100.00;99385.56;5943721;29;96380;-55